Time;durP1;ratioP1;P1;durP2;ratioP2;P2;SDS_P1;SDS_P2;PMS_P1;PMS_P2;Temp;Humidity;BMP_temperature;BMP_pressure;BME280_temperature;BME280_humidity;BME280_pressure;Samples;Min_cycle;Max_cycle;Signal;HPM_P1;HPM_P2
2022/08/26 00:02:11;;;;;;;14.23;6.82;;;;;;;23.25;100.00;99847.59;5033342;28;20056;-75
2022/08/26 00:04:39;;;;;;;15.45;6.75;;;;;;;23.28;100.00;99846.41;5033154;28;20069;-75
2022/08/26 00:07:09;;;;;;;16.02;6.78;;;;;;;23.09;100.00;99842.34;5033224;28;20041;-75
2022/08/26 00:09:37;;;;;;;11.80;6.35;;;;;;;22.96;100.00;99847.53;5033121;28;20048;-75
2022/08/26 00:12:08;;;;;;;12.45;6.68;;;;;;;22.97;100.00;99849.22;5033262;28;20041;-75
2022/08/26 00:14:40;;;;;;;15.53;6.73;;;;;;;22.93;100.00;99843.28;5033218;28;20045;-75
2022/08/26 00:17:09;;;;;;;18.13;7.13;;;;;;;22.89;100.00;99841.13;5033131;28;20041;-75
2022/08/26 00:19:38;;;;;;;12.73;6.40;;;;;;;22.78;100.00;99840.50;5032805;28;20063;-75
2022/08/26 00:22:07;;;;;;;14.82;6.75;;;;;;;22.80;100.00;99838.44;5033317;28;20096;-75
2022/08/26 00:24:36;;;;;;;17.10;6.63;;;;;;;22.77;100.00;99844.22;5033242;28;20120;-75
2022/08/26 00:27:05;;;;;;;11.15;6.72;;;;;;;22.70;100.00;99845.16;5015848;28;20049;-75
2022/08/26 00:29:33;;;;;;;12.82;6.63;;;;;;;22.76;100.00;99850.69;5033201;28;20056;-75
2022/08/26 00:32:05;;;;;;;11.35;6.43;;;;;;;22.73;100.00;99848.34;5033036;28;20037;-75
2022/08/26 00:34:33;;;;;;;14.43;7.00;;;;;;;22.79;100.00;99841.34;5033126;28;20046;-75
2022/08/26 00:37:02;;;;;;;12.10;6.35;;;;;;;22.71;100.00;99844.13;5033042;28;20096;-75
2022/08/26 00:39:30;;;;;;;14.38;6.70;;;;;;;22.64;100.00;99849.41;5032986;28;20048;-75
2022/08/26 00:42:00;;;;;;;16.08;6.97;;;;;;;22.53;100.00;99838.97;5032905;28;20069;-75
2022/08/26 00:44:29;;;;;;;12.70;7.07;;;;;;;22.67;100.00;99835.47;5033504;28;20053;-75
2022/08/26 00:47:02;;;;;;;14.43;6.88;;;;;;;22.72;100.00;99846.66;5036710;28;20561;-75
2022/08/26 00:49:37;;;;;;;13.20;6.90;;;;;;;22.76;100.00;99831.66;5037365;28;20057;-75
2022/08/26 00:52:07;;;;;;;13.52;6.88;;;;;;;22.77;100.00;99838.78;5036994;28;20438;-75
2022/08/26 00:54:45;;;;;;;9.98;6.40;;;;;;;22.87;100.00;99837.72;5036706;28;20048;-75
2022/08/26 00:57:18;;;;;;;12.52;7.97;;;;;;;22.87;100.00;99838.56;5036780;28;20180;-75
2022/08/26 00:59:50;;;;;;;14.48;6.95;;;;;;;22.83;100.00;99834.50;5036754;28;20049;-75
2022/08/26 01:02:18;;;;;;;10.60;6.27;;;;;;;22.75;100.00;99838.13;5019247;28;20058;-75
2022/08/26 01:04:51;;;;;;;13.45;6.70;;;;;;;22.79;100.00;99834.03;5036408;28;20117;-75
2022/08/26 01:07:25;;;;;;;15.80;6.78;;;;;;;22.80;100.00;99832.16;5036769;28;20041;-75
2022/08/26 01:09:55;;;;;;;13.40;6.78;;;;;;;22.74;100.00;99835.59;5018426;28;20110;-75
2022/08/26 01:12:27;;;;;;;11.98;6.60;;;;;;;22.66;100.00;99836.47;5036460;28;20052;-75
2022/08/26 01:14:56;;;;;;;14.32;6.80;;;;;;;22.55;100.00;99836.91;5036643;28;20041;-75
2022/08/26 01:17:25;;;;;;;12.40;6.63;;;;;;;22.46;100.00;99837.97;5036620;28;20081;-75
2022/08/26 01:20:01;;;;;;;11.85;6.25;;;;;;;22.34;100.00;99831.25;5036076;28;20048;-75
2022/08/26 01:22:39;;;;;;;11.18;6.80;;;;;;;22.16;100.00;99832.34;5036512;28;20478;-75
2022/08/26 01:25:08;;;;;;;13.70;6.93;;;;;;;22.15;100.00;99827.09;5018979;28;20057;-75
2022/08/26 01:27:36;;;;;;;14.38;7.32;;;;;;;22.13;100.00;99818.28;5036231;28;20055;-75
2022/08/26 01:30:06;;;;;;;15.02;6.97;;;;;;;22.09;100.00;99834.09;5035932;28;20049;-75
2022/08/26 01:32:35;;;;;;;12.85;6.78;;;;;;;22.03;100.00;99837.50;5035953;28;20133;-75
2022/08/26 01:35:07;;;;;;;13.88;6.63;;;;;;;22.15;100.00;99827.94;5036413;28;20111;-75
2022/08/26 01:37:37;;;;;;;13.82;6.63;;;;;;;21.98;100.00;99831.72;5035969;28;20050;-75
2022/08/26 01:40:13;;;;;;;16.77;6.90;;;;;;;21.94;100.00;99833.97;5036483;28;20124;-75
2022/08/26 01:42:45;;;;;;;15.68;7.03;;;;;;;22.02;100.00;99838.50;5035696;28;20083;-75
2022/08/26 01:45:19;;;;;;;15.05;7.18;;;;;;;22.16;100.00;99831.50;5036130;28;20061;-75
2022/08/26 01:47:49;;;;;;;11.80;7.10;;;;;;;22.16;100.00;99828.78;5035733;28;20072;-75
2022/08/26 01:50:29;;;;;;;17.25;7.05;;;;;;;22.25;100.00;99827.72;5035857;28;20049;-75
2022/08/26 01:53:01;;;;;;;12.55;6.88;;;;;;;22.09;100.00;99825.94;5035792;28;20060;-75
2022/08/26 01:55:31;;;;;;;13.30;7.07;;;;;;;22.11;100.00;99823.06;5035528;28;20045;-75
2022/08/26 01:58:05;;;;;;;11.93;7.15;;;;;;;22.09;100.00;99825.94;5035465;28;20041;-75
2022/08/26 02:00:35;;;;;;;12.52;7.70;;;;;;;21.94;100.00;99831.25;5035802;28;20073;-75
2022/08/26 02:03:17;;;;;;;12.43;7.10;;;;;;;21.91;100.00;99836.19;5017959;28;20057;-75
2022/08/26 02:05:46;;;;;;;13.50;7.32;;;;;;;21.91;100.00;99836.19;5035317;28;20084;-75
2022/08/26 02:08:18;;;;;;;;;;;;;;;22.01;100.00;99831.38;5036129;28;20052;-75
2022/08/26 02:10:54;;;;;;;11.85;7.15;;;;;;;21.94;100.00;99830.41;5017577;28;20358;-75
2022/08/26 02:13:26;;;;;;;14.07;7.38;;;;;;;21.96;100.00;99829.19;5035802;28;20045;-75
2022/08/26 02:15:55;;;;;;;14.77;7.43;;;;;;;21.87;100.00;99832.94;5035202;28;20042;-75
2022/08/26 02:18:24;;;;;;;12.18;7.20;;;;;;;21.80;100.00;99826.53;5035196;28;20104;-75
2022/08/26 02:20:54;;;;;;;13.48;7.53;;;;;;;21.70;100.00;99834.88;5035003;28;20045;-75
2022/08/26 02:23:22;;;;;;;12.45;7.47;;;;;;;21.79;100.00;99832.97;5017688;28;20227;-75
2022/08/26 02:25:59;;;;;;;13.80;7.07;;;;;;;21.89;100.00;99833.63;5034851;28;20433;-75
2022/08/26 02:28:31;;;;;;;16.25;7.70;;;;;;;21.69;100.00;99833.16;5035177;28;20045;-74
2022/08/26 02:30:59;;;;;;;13.15;7.57;;;;;;;21.77;100.00;99828.75;5034687;28;20525;-75
2022/08/26 02:33:30;;;;;;;17.27;7.88;;;;;;;21.67;100.00;99824.38;5034982;28;20069;-75
2022/08/26 02:35:58;;;;;;;17.73;8.38;;;;;;;21.62;100.00;99826.78;5034942;28;20041;-75
2022/08/26 02:38:26;;;;;;;13.85;7.30;;;;;;;21.58;100.00;99819.97;5034856;28;20071;-75
2022/08/26 02:40:56;;;;;;;15.73;7.43;;;;;;;21.45;100.00;99830.53;5034633;28;20034;-75
2022/08/26 02:43:24;;;;;;;18.40;8.07;;;;;;;21.34;100.00;99830.91;5034610;28;20041;-75
2022/08/26 02:46:00;;;;;;;14.85;7.82;;;;;;;21.42;100.00;99825.44;5034811;28;20059;-75
2022/08/26 02:48:30;;;;;;;13.75;7.43;;;;;;;21.38;100.00;99830.38;5034796;28;20410;-75
2022/08/26 02:51:00;;;;;;;15.60;7.57;;;;;;;21.35;100.00;99822.56;5034389;28;20041;-75
2022/08/26 02:53:29;;;;;;;14.63;7.88;;;;;;;21.45;100.00;99827.81;5034702;28;20069;-75
2022/08/26 02:56:00;;;;;;;16.10;8.55;;;;;;;21.47;100.00;99828.50;5034299;28;20075;-75
2022/08/26 02:58:30;;;;;;;13.43;7.95;;;;;;;21.31;100.00;99832.06;5034748;28;20121;-75
2022/08/26 03:00:58;;;;;;;16.10;8.52;;;;;;;21.23;100.00;99829.34;5034389;28;20047;-75
2022/08/26 03:03:28;;;;;;;14.77;7.97;;;;;;;21.31;100.00;99837.50;5034695;28;20049;-75
2022/08/26 03:05:57;;;;;;;14.27;7.78;;;;;;;21.40;100.00;99822.03;5034018;28;20046;-75
2022/08/26 03:08:25;;;;;;;11.18;7.78;;;;;;;21.32;100.00;99828.31;5033869;28;20046;-75
2022/08/26 03:10:54;;;;;;;13.13;7.72;;;;;;;21.29;100.00;99825.13;5034216;28;20091;-75
2022/08/26 03:13:24;;;;;;;14.60;7.93;;;;;;;21.30;100.00;99829.53;5034547;28;20048;-75
2022/08/26 03:15:52;;;;;;;17.90;8.57;;;;;;;21.39;100.00;99825.78;5016286;28;20052;-75
2022/08/26 03:18:20;;;;;;;12.48;8.27;;;;;;;21.41;100.00;99818.31;5034257;28;20076;-75
2022/08/26 03:20:48;;;;;;;12.50;7.50;;;;;;;21.34;100.00;99815.47;5033792;28;20053;-75
2022/08/26 03:23:16;;;;;;;19.27;9.02;;;;;;;21.25;100.00;99818.31;5034043;28;20084;-75
2022/08/26 03:25:49;;;;;;;12.88;8.65;;;;;;;21.23;100.00;99813.09;5034134;28;20092;-74
2022/08/26 03:28:18;;;;;;;17.17;7.88;;;;;;;21.27;100.00;99813.59;5034188;28;20048;-75
2022/08/26 03:30:48;;;;;;;15.40;8.05;;;;;;;21.19;100.00;99809.00;5034037;28;20053;-75
2022/08/26 03:33:16;;;;;;;15.02;8.13;;;;;;;21.08;100.00;99807.47;5033753;28;20099;-75
2022/08/26 03:35:46;;;;;;;11.27;7.45;;;;;;;21.19;100.00;99805.44;5033947;28;20111;-75
2022/08/26 03:38:18;;;;;;;;;;;;;;;21.24;100.00;99806.63;5034397;28;20041;-75
2022/08/26 03:40:46;;;;;;;17.00;7.55;;;;;;;21.14;100.00;99806.81;5033753;28;19921;-75
2022/08/26 03:43:15;;;;;;;14.65;8.18;;;;;;;21.08;100.00;99807.47;5033638;28;20041;-75
2022/08/26 03:45:44;;;;;;;15.32;7.97;;;;;;;21.17;100.00;99807.47;5033447;28;20061;-75
2022/08/26 03:48:14;;;;;;;15.68;8.00;;;;;;;21.18;100.00;99806.47;5033351;28;20112;-75
2022/08/26 03:50:42;;;;;;;15.77;8.02;;;;;;;21.12;100.00;99806.09;5033780;28;20042;-75
2022/08/26 03:53:10;;;;;;;16.92;7.90;;;;;;;20.99;100.00;99803.09;5033257;28;20473;-75
2022/08/26 03:55:42;;;;;;;16.63;8.20;;;;;;;20.90;100.00;99804.09;5015933;28;20049;-75
2022/08/26 03:58:11;;;;;;;14.43;8.15;;;;;;;20.92;100.00;99810.19;5033457;28;20045;-75
2022/08/26 04:00:39;;;;;;;12.32;8.20;;;;;;;21.08;100.00;99802.06;5033275;28;20383;-75
2022/08/26 04:03:07;;;;;;;14.45;8.40;;;;;;;21.01;100.00;99813.75;5033421;28;20048;-75
2022/08/26 04:05:38;;;;;;;15.20;8.55;;;;;;;20.93;100.00;99811.88;5033452;28;20044;-75
2022/08/26 04:08:07;;;;;;;12.68;7.57;;;;;;;20.96;100.00;99806.13;5032991;28;20073;-75
2022/08/26 04:10:37;;;;;;;16.98;8.05;;;;;;;21.05;100.00;99801.56;5033502;28;20045;-75
2022/08/26 04:13:06;;;;;;;13.20;8.02;;;;;;;21.09;100.00;99803.75;5033210;28;20088;-75
2022/08/26 04:15:34;;;;;;;14.23;7.35;;;;;;;21.40;100.00;99803.91;5033283;28;20056;-75
2022/08/26 04:18:03;;;;;;;17.25;8.50;;;;;;;21.31;100.00;99802.22;5032942;28;20041;-75
2022/08/26 04:20:31;;;;;;;16.13;8.18;;;;;;;21.21;100.00;99800.69;5032262;28;20049;-75
2022/08/26 04:23:01;;;;;;;15.68;7.88;;;;;;;21.40;100.00;99809.31;5032902;28;20124;-75
2022/08/26 04:25:29;;;;;;;15.90;7.88;;;;;;;21.35;100.00;99808.16;5032970;28;20072;-75
2022/08/26 04:27:57;;;;;;;16.02;7.97;;;;;;;21.32;100.00;99803.91;5033162;28;20372;-75
2022/08/26 04:30:25;;;;;;;16.00;8.30;;;;;;;21.40;100.00;99806.63;5032921;28;20075;-75
2022/08/26 04:32:53;;;;;;;16.88;7.80;;;;;;;21.55;100.00;99809.47;5032932;28;20048;-75
2022/08/26 04:35:22;;;;;;;14.93;7.97;;;;;;;21.67;100.00;99805.38;5032952;28;20041;-75
2022/08/26 04:37:54;;;;;;;16.73;8.15;;;;;;;21.79;100.00;99804.97;5032733;28;20045;-75
2022/08/26 04:40:26;;;;;;;14.80;7.82;;;;;;;21.79;100.00;99804.97;5033182;28;20052;-75
2022/08/26 04:42:55;;;;;;;18.60;8.32;;;;;;;21.76;100.00;99800.75;5032693;28;20552;-75
2022/08/26 04:45:24;;;;;;;14.55;7.60;;;;;;;21.79;100.00;99804.97;5032939;28;20053;-75
2022/08/26 04:47:55;;;;;;;17.58;8.73;;;;;;;21.78;100.00;99806.00;5032657;28;20490;-75
2022/08/26 04:50:25;;;;;;;15.90;7.88;;;;;;;21.81;100.00;99808.38;5033047;28;20394;-75
2022/08/26 04:52:54;;;;;;;15.27;8.40;;;;;;;21.92;100.00;99806.13;5014985;28;20053;-75
2022/08/26 04:55:24;;;;;;;14.13;7.60;;;;;;;22.11;100.00;99806.78;5015344;28;20138;-75
2022/08/26 04:58:08;;;;;;;16.90;7.80;;;;;;;22.23;100.00;99808.06;5032505;28;20045;-75
2022/08/26 05:00:38;;;;;;;17.33;7.93;;;;;;;22.38;100.00;99810.84;5032661;28;20049;-75
2022/08/26 05:03:07;;;;;;;16.05;8.02;;;;;;;22.51;100.00;99822.00;5014915;28;20498;-75
2022/08/26 05:05:40;;;;;;;13.55;7.65;;;;;;;22.55;100.00;99804.28;5032752;28;20042;-75
2022/08/26 05:08:09;;;;;;;14.30;7.70;;;;;;;22.61;100.00;99805.44;5032711;28;20045;-75
2022/08/26 05:10:45;;;;;;;13.60;7.78;;;;;;;22.70;100.00;99807.94;5032685;28;20064;-75
2022/08/26 05:13:13;;;;;;;15.73;7.60;;;;;;;22.81;100.00;99804.78;5032287;28;20048;-75
2022/08/26 05:15:43;;;;;;;15.43;7.38;;;;;;;22.88;100.00;99806.81;5032688;28;20403;-75
2022/08/26 05:18:13;;;;;;;14.70;7.35;;;;;;;22.91;100.00;99801.00;5032390;28;20044;-75
2022/08/26 05:20:44;;;;;;;15.93;8.25;;;;;;;23.21;100.00;99808.22;5032464;28;20041;-75
2022/08/26 05:23:15;;;;;;;15.30;6.82;;;;;;;23.28;100.00;99806.44;5014745;28;20053;-75
2022/08/26 05:25:47;;;;;;;16.70;7.25;;;;;;;23.30;100.00;99801.66;5032472;28;20037;-75
2022/08/26 05:28:17;;;;;;;19.83;6.85;;;;;;;23.29;100.00;99819.03;5032330;28;20048;-75
2022/08/26 05:30:45;;;;;;;12.70;7.07;;;;;;;23.54;100.00;99810.59;5033684;28;20053;-75
2022/08/26 05:33:15;;;;;;;14.63;7.40;;;;;;;23.59;100.00;99810.91;5035913;28;20038;-75
2022/08/26 05:35:45;;;;;;;13.75;6.60;;;;;;;23.85;100.00;99815.91;5036218;28;20051;-75
2022/08/26 05:38:16;;;;;;;16.83;7.10;;;;;;;24.02;100.00;99819.25;5035700;28;20045;-75
2022/08/26 05:40:48;;;;;;;14.65;6.78;;;;;;;24.19;100.00;99815.28;5036113;28;20037;-75
2022/08/26 05:43:20;;;;;;;21.15;7.18;;;;;;;24.12;100.00;99822.53;5036234;28;20454;-75
2022/08/26 05:45:50;;;;;;;21.17;6.85;;;;;;;24.10;100.00;99821.88;5035737;28;20506;-75
2022/08/26 05:48:20;;;;;;;16.27;6.43;;;;;;;24.25;100.00;99822.72;5035519;28;20049;-75
2022/08/26 05:50:52;;;;;;;18.35;6.88;;;;;;;24.58;100.00;99817.66;5036005;28;20042;-75
2022/08/26 05:53:21;;;;;;;21.60;6.38;;;;;;;24.83;100.00;99823.59;5036091;28;20037;-75
2022/08/26 05:55:55;;;;;;;16.98;6.40;;;;;;;25.21;100.00;99824.19;5041730;28;20064;-75
2022/08/26 05:58:25;;;;;;;11.30;5.85;;;;;;;25.09;100.00;99823.03;5052206;28;20133;-75
2022/08/26 06:00:59;;;;;;;17.20;5.65;;;;;;;24.58;100.00;99830.47;5037399;28;20046;-75
2022/08/26 06:03:29;;;;;;;14.95;6.32;;;;;;;25.05;100.00;99824.47;5035670;28;20045;-75
2022/08/26 06:05:59;;;;;;;15.48;6.50;;;;;;;25.99;100.00;99832.31;5035307;28;20048;-75
2022/08/26 06:08:27;;;;;;;11.80;5.50;;;;;;;26.13;100.00;99829.44;5035569;28;20482;-75
2022/08/26 06:11:01;;;;;;;17.00;6.18;;;;;;;26.57;100.00;99830.91;5035468;28;20041;-75
2022/08/26 06:13:30;;;;;;;15.05;5.90;;;;;;;26.81;100.00;99832.22;5017587;28;20560;-75
2022/08/26 06:16:02;;;;;;;15.07;6.47;;;;;;;26.79;100.00;99840.63;5034880;28;20045;-75
2022/08/26 06:18:35;;;;;;;16.42;5.75;;;;;;;26.87;100.00;99836.00;5035452;28;20045;-75
2022/08/26 06:21:13;;;;;;;18.27;5.78;;;;;;;27.02;100.00;99833.91;5035149;28;20041;-75
2022/08/26 06:26:29;;;;;;;17.83;5.88;;;;;;;27.92;100.00;99830.56;5035149;28;20038;-75
2022/08/26 06:28:58;;;;;;;18.27;5.82;;;;;;;28.05;100.00;99834.28;5035486;28;20054;-75
2022/08/26 06:31:29;;;;;;;13.23;4.72;;;;;;;28.15;100.00;99838.25;5035319;28;20551;-75
2022/08/26 06:34:00;;;;;;;13.60;5.32;;;;;;;28.23;100.00;99842.69;5034755;28;20041;-75
2022/08/26 06:36:30;;;;;;;11.45;4.95;;;;;;;28.50;100.00;99837.94;5017146;28;20472;-75
2022/08/26 06:39:02;;;;;;;15.18;5.78;;;;;;;28.64;100.00;99838.72;5017223;28;20053;-76
2022/08/26 06:41:32;;;;;;;14.27;5.32;;;;;;;28.21;100.00;99836.56;5034701;28;20073;-75
2022/08/26 06:44:01;;;;;;;15.60;4.90;;;;;;;29.01;100.00;99839.78;5034057;28;20459;-75
2022/08/26 06:46:30;;;;;;;14.52;4.88;;;;;;;28.88;100.00;99829.72;5034934;28;20117;-75
2022/08/26 06:48:59;;;;;;;12.75;5.05;;;;;;;28.37;100.00;99829.75;5034794;28;20053;-75
2022/08/26 06:51:30;;;;;;;14.52;4.90;;;;;;;28.43;100.00;99827.00;5034612;28;20437;-75
2022/08/26 06:54:01;;;;;;;11.25;5.00;;;;;;;28.64;100.00;99827.72;5034551;28;20069;-75
2022/08/26 06:56:35;;;;;;;14.82;5.63;;;;;;;28.78;100.00;99830.19;5034601;28;20041;-75
2022/08/26 06:59:04;;;;;;;16.38;4.88;;;;;;;28.74;100.00;99828.09;5034298;28;20045;-75
2022/08/26 07:01:37;;;;;;;11.73;4.47;;;;;;;28.07;100.00;99830.28;5034429;28;20471;-75
2022/08/26 07:04:10;;;;;;;12.68;4.55;;;;;;;27.78;100.00;99828.88;5016653;28;20115;-75
2022/08/26 07:06:40;;;;;;;12.95;4.95;;;;;;;27.44;100.00;99827.22;5034412;28;20430;-74
2022/08/26 07:09:12;;;;;;;14.45;4.88;;;;;;;27.52;100.00;99828.91;5034111;28;20525;-74
2022/08/26 07:11:43;;;;;;;13.40;5.00;;;;;;;27.46;100.00;99824.28;5034222;28;20099;-74
2022/08/26 07:14:12;;;;;;;16.02;5.18;;;;;;;27.49;100.00;99821.09;5033931;28;20095;-74
2022/08/26 07:16:40;;;;;;;16.38;4.85;;;;;;;27.34;100.00;99822.19;5034446;28;20077;-74
2022/08/26 07:19:09;;;;;;;15.52;5.10;;;;;;;27.36;100.00;99824.69;5033809;28;20132;-75
2022/08/26 07:21:39;;;;;;;15.90;4.80;;;;;;;27.30;100.00;99825.53;5034157;28;20410;-75
2022/08/26 07:24:08;;;;;;;15.45;4.65;;;;;;;27.33;100.00;99825.13;5033896;28;20501;-74
2022/08/26 07:26:39;;;;;;;11.88;4.78;;;;;;;27.41;100.00;99821.31;5034057;28;20072;-74
2022/08/26 07:29:11;;;;;;;13.57;4.70;;;;;;;27.44;100.00;99821.75;5034014;28;20053;-75
2022/08/26 07:31:40;;;;;;;13.25;4.70;;;;;;;27.47;100.00;99823.22;5033918;28;20052;-75
2022/08/26 07:34:10;;;;;;;10.77;4.63;;;;;;;27.39;100.00;99816.91;5033741;28;20042;-75
2022/08/26 07:36:38;;;;;;;12.95;4.30;;;;;;;27.52;100.00;99817.97;5034115;28;20080;-74
2022/08/26 07:39:06;;;;;;;14.57;4.65;;;;;;;27.41;100.00;99811.22;5033491;28;20068;-75
2022/08/26 07:41:35;;;;;;;11.75;4.07;;;;;;;27.53;100.00;99816.91;5033629;28;20393;-75
2022/08/26 07:44:05;;;;;;;10.55;3.55;;;;;;;27.38;96.85;99822.59;5033888;28;20108;-75
2022/08/26 07:46:36;;;;;;;13.10;4.05;;;;;;;27.49;76.04;99818.38;5016422;28;20049;-74
2022/08/26 07:49:05;;;;;;;9.93;4.28;;;;;;;27.70;66.43;99818.19;5033704;28;20045;-74
2022/08/26 07:51:34;;;;;;;7.07;3.75;;;;;;;27.56;60.54;99816.47;5033442;28;20045;-75
2022/08/26 07:54:04;;;;;;;10.80;4.15;;;;;;;27.48;60.35;99805.72;5033195;28;20067;-75
2022/08/26 07:56:34;;;;;;;13.80;3.88;;;;;;;27.74;59.54;99815.84;5033584;28;20045;-75
2022/08/26 07:59:04;;;;;;;11.38;3.70;;;;;;;27.73;56.33;99819.63;5033368;28;20045;-74
2022/08/26 08:01:43;;;;;;;9.75;3.67;;;;;;;27.81;54.15;99817.50;5033665;28;20096;-75
2022/08/26 08:04:13;;;;;;;11.65;4.05;;;;;;;27.76;50.97;99819.19;5032996;28;20052;-74
2022/08/26 08:06:42;;;;;;;10.95;3.92;;;;;;;27.84;50.76;99814.34;5015831;28;20052;-74
2022/08/26 08:09:11;;;;;;;12.00;4.38;;;;;;;27.87;51.03;99811.16;5032931;28;20041;-75
2022/08/26 08:11:40;;;;;;;12.10;3.95;;;;;;;27.96;50.73;99817.25;5033351;28;20053;-74
2022/08/26 08:14:08;;;;;;;13.98;4.53;;;;;;;27.92;48.84;99819.59;5015228;28;20084;-75
2022/08/26 08:16:39;;;;;;;10.52;3.90;;;;;;;27.77;49.86;99809.91;5015422;28;20132;-75
2022/08/26 08:19:15;;;;;;;18.15;3.95;;;;;;;27.78;49.38;99809.69;5015477;28;20129;-75
2022/08/26 08:21:43;;;;;;;11.48;4.07;;;;;;;27.98;49.34;99800.56;5033310;28;20049;-75
2022/08/26 08:24:12;;;;;;;7.20;3.80;;;;;;;28.18;48.24;99798.59;5032867;28;20095;-75
2022/08/26 08:26:40;;;;;;;11.98;4.63;;;;;;;28.31;48.00;99806.81;5033277;28;20128;-75
2022/08/26 08:29:08;;;;;;;8.73;4.05;;;;;;;28.22;47.31;99797.13;5032615;28;20045;-74
2022/08/26 08:31:36;;;;;;;8.27;3.90;;;;;;;28.26;45.63;99803.84;5033057;28;20049;-74
2022/08/26 08:34:28;;;;;;;13.50;4.10;;;;;;;28.42;45.99;99797.91;5032593;28;20048;-75
2022/08/26 08:36:57;;;;;;;9.77;4.03;;;;;;;28.44;44.24;99794.94;5033164;28;20469;-75
2022/08/26 08:39:25;;;;;;;10.80;4.10;;;;;;;28.46;44.05;99793.63;5015035;28;20052;-75
2022/08/26 08:42:14;;;;;;;11.30;4.35;;;;;;;28.51;44.16;99788.34;5032794;28;20046;-75
2022/08/26 08:44:49;;;;;;;11.35;4.32;;;;;;;28.63;43.57;99784.91;5032839;28;20045;-74
2022/08/26 08:47:28;;;;;;;10.57;4.38;;;;;;;28.57;43.35;99783.03;5032765;28;20479;-74
2022/08/26 08:50:06;;;;;;;13.75;4.00;;;;;;;28.64;42.86;99786.56;5015395;28;20050;-75
2022/08/26 08:52:36;;;;;;;13.15;3.83;;;;;;;28.69;43.55;99781.28;5015416;28;20046;-75
2022/08/26 08:55:06;;;;;;;11.85;4.10;;;;;;;28.80;43.14;99783.31;5032786;28;20077;-75
2022/08/26 08:57:53;;;;;;;12.63;4.25;;;;;;;28.83;42.77;99777.38;5015251;28;20099;-75
2022/08/26 09:00:37;;;;;;;13.63;4.10;;;;;;;28.84;43.17;99787.28;5032512;28;20128;-75
2022/08/26 09:03:17;;;;;;;10.10;4.40;;;;;;;28.79;42.85;99781.63;5032972;28;20042;-75
2022/08/26 09:05:50;;;;;;;12.80;4.30;;;;;;;28.69;43.15;99784.88;5034069;28;20045;-75
2022/08/26 09:08:26;;;;;;;10.32;4.30;;;;;;;28.79;43.59;99776.97;5036360;28;20045;-75
2022/08/26 09:10:58;;;;;;;13.90;4.30;;;;;;;28.90;43.33;99778.19;5018589;28;20045;-75
2022/08/26 09:13:28;;;;;;;10.75;3.88;;;;;;;28.70;43.67;99771.97;5036579;28;20049;-75
2022/08/26 09:16:06;;;;;;;15.20;4.03;;;;;;;28.91;43.92;99776.28;5036341;28;20048;-75
2022/08/26 09:19:13;;;;;;;9.55;3.90;;;;;;;28.94;43.13;99773.94;5018974;28;20135;-75
2022/08/26 09:21:43;;;;;;;14.48;4.07;;;;;;;29.17;43.30;99772.50;5036586;28;20048;-75
2022/08/26 09:24:11;;;;;;;11.45;3.90;;;;;;;29.17;43.14;99767.00;5018337;28;20056;-75
2022/08/26 09:26:46;;;;;;;10.27;4.43;;;;;;;29.18;43.04;99764.03;5018445;28;20049;-74
2022/08/26 09:29:23;;;;;;;9.75;4.10;;;;;;;29.14;42.46;99764.69;5018386;28;20054;-75
2022/08/26 09:31:52;;;;;;;9.68;4.18;;;;;;;29.17;42.69;99767.84;5036169;28;20405;-74
2022/08/26 09:34:23;;;;;;;10.63;4.18;;;;;;;29.33;41.84;99761.75;5018199;28;20074;-74
2022/08/26 09:36:54;;;;;;;12.55;4.15;;;;;;;29.26;42.52;99771.16;5036395;28;20079;-75
2022/08/26 09:39:35;;;;;;;11.15;4.00;;;;;;;29.40;42.36;99758.94;5017968;28;20546;-74
2022/08/26 09:42:11;;;;;;;9.07;3.75;;;;;;;29.40;41.97;99766.34;5018120;28;20046;-75
2022/08/26 09:44:56;;;;;;;13.20;4.30;;;;;;;29.48;42.72;99763.31;5019557;28;20077;-74
2022/08/26 09:47:28;;;;;;;12.07;3.60;;;;;;;29.55;42.33;99753.97;5036010;28;20111;-75
2022/08/26 09:50:04;;;;;;;13.38;4.00;;;;;;;29.49;42.11;99760.38;5036279;28;20042;-75
2022/08/26 09:52:38;;;;;;;11.48;4.25;;;;;;;29.48;42.10;99764.19;5036065;28;20087;-75
2022/08/26 09:55:13;;;;;;;11.73;3.80;;;;;;;29.57;41.78;99765.56;5035675;28;20045;-75
2022/08/26 09:57:49;;;;;;;17.27;4.90;;;;;;;29.59;42.35;99752.44;5034760;28;20053;-74
2022/08/26 10:00:30;;;;;;;11.45;3.75;;;;;;;29.71;41.40;99759.91;5035545;28;20076;-75
2022/08/26 10:03:02;;;;;;;12.88;3.97;;;;;;;29.63;41.69;99750.94;5035627;28;20045;-75
2022/08/26 10:05:38;;;;;;;14.27;4.10;;;;;;;29.72;41.57;99758.84;5034354;28;20498;-75
2022/08/26 10:08:22;;;;;;;13.85;3.88;;;;;;;29.81;41.98;99749.22;5034093;28;20060;-75
2022/08/26 10:10:55;;;;;;;11.75;4.38;;;;;;;30.00;41.86;99745.41;5034403;28;20072;-75
2022/08/26 10:13:25;;;;;;;;;;;;;;;30.01;41.18;99754.47;5037932;28;20068;-75
2022/08/26 10:16:00;;;;;;;;;;;;;;;30.01;41.35;99744.31;5048079;28;19921;-75
2022/08/26 10:18:31;;;;;;;15.35;4.20;;;;;;;30.10;41.65;99739.38;5036609;28;19921;-75
2022/08/26 10:21:07;;;;;;;17.13;4.93;;;;;;;29.85;41.81;99745.81;5034208;28;20049;-75
2022/08/26 10:23:41;;;;;;;11.45;3.95;;;;;;;29.84;41.73;99746.03;5034995;28;20107;-75
2022/08/26 10:26:16;;;;;;;12.35;4.10;;;;;;;30.17;40.77;99740.13;5034138;28;20457;-74
2022/08/26 10:28:50;;;;;;;11.82;4.20;;;;;;;30.14;40.66;99744.19;5035401;28;20045;-75
2022/08/26 10:31:28;;;;;;;10.32;4.22;;;;;;;30.01;39.91;99738.81;5033760;28;20053;-75
2022/08/26 10:34:05;;;;;;;12.30;3.97;;;;;;;30.13;39.72;99738.94;5035058;28;20045;-74
2022/08/26 10:36:50;;;;;;;14.30;4.60;;;;;;;30.15;39.31;99740.38;5034525;28;20124;-75
2022/08/26 10:39:46;;;;;;;13.73;4.45;;;;;;;30.04;39.16;99730.13;5034919;28;20379;-75
2022/08/26 10:42:22;;;;;;;14.88;3.85;;;;;;;30.16;39.22;99727.47;5034672;28;20100;-75
2022/08/26 10:44:55;;;;;;;11.15;4.00;;;;;;;30.18;39.76;99717.91;5033403;28;20062;-75
2022/08/26 10:47:34;;;;;;;13.50;4.00;;;;;;;30.04;40.32;99721.88;5033411;28;20054;-75
2022/08/26 10:50:04;;;;;;;13.15;4.10;;;;;;;30.12;39.40;99715.25;5033710;28;20053;-75
2022/08/26 10:52:47;;;;;;;16.98;4.43;;;;;;;30.44;39.05;99721.34;5034491;28;20488;-75
2022/08/26 10:55:24;;;;;;;13.35;3.97;;;;;;;30.34;38.43;99716.41;5033382;28;20136;-75
2022/08/26 10:57:59;;;;;;;11.95;3.85;;;;;;;30.44;37.51;99707.59;5034774;28;20041;-75
2022/08/26 11:03:33;;;;;;;12.27;3.88;;;;;;;30.41;37.56;99708.06;5032929;28;20057;-75
2022/08/26 11:06:22;;;;;;;11.57;3.70;;;;;;;30.50;38.03;99706.66;5034475;28;20072;-75
2022/08/26 11:08:52;;;;;;;14.13;4.13;;;;;;;30.56;37.46;99711.22;5039585;28;20132;-75
2022/08/26 11:11:56;;;;;;;16.63;4.85;;;;;;;30.77;37.81;99702.41;5042160;28;20057;-75
2022/08/26 11:14:35;;;;;;;10.80;4.07;;;;;;;30.61;38.22;99694.84;5029887;28;20064;-75
2022/08/26 11:17:55;;;;;;;17.33;4.00;;;;;;;30.68;38.47;99697.50;5034097;28;20045;-75
2022/08/26 11:20:35;;;;;;;14.60;3.95;;;;;;;30.75;38.31;99690.81;5032782;28;20049;-75
2022/08/26 11:23:38;;;;;;;13.77;4.03;;;;;;;30.82;38.48;99698.13;5034332;28;20069;-75
2022/08/26 11:26:17;;;;;;;15.90;4.18;;;;;;;30.91;37.96;99691.19;5034065;28;20083;-75
2022/08/26 11:29:06;;;;;;;16.17;4.03;;;;;;;30.94;36.93;99682.44;5033595;28;20048;-75
2022/08/26 11:31:56;;;;;;;13.80;4.38;;;;;;;30.98;37.11;99680.88;5032485;28;20083;-75
2022/08/26 11:34:56;;;;;;;11.00;4.43;;;;;;;31.08;37.30;99675.66;5033761;28;20041;-75
2022/08/26 11:37:32;;;;;;;17.65;4.10;;;;;;;31.23;37.23;99678.78;5032250;28;20132;-75
2022/08/26 11:40:03;;;;;;;12.07;3.72;;;;;;;31.01;37.21;99674.91;5033956;28;20046;-75
2022/08/26 11:42:36;;;;;;;9.77;3.67;;;;;;;31.11;35.68;99669.66;5032457;28;20498;-75
2022/08/26 11:45:22;;;;;;;10.63;4.25;;;;;;;31.27;35.44;99666.22;5033748;28;20444;-75
2022/08/26 11:47:53;;;;;;;14.05;3.88;;;;;;;31.48;35.78;99659.22;5033626;28;20060;-75
2022/08/26 11:50:24;;;;;;;13.68;3.90;;;;;;;31.39;34.96;99662.59;5033321;28;20091;-75
2022/08/26 11:52:55;;;;;;;9.63;3.92;;;;;;;31.42;35.69;99660.19;5016211;28;20390;-75